createdAt,value
2017-08-05T00:00:40.020Z,0
2017-08-05T00:01:50.285Z,0
2017-08-05T00:03:00.240Z,0
2017-08-05T00:04:10.512Z,0
2017-08-05T00:05:20.787Z,0
2017-08-05T00:06:31.060Z,0
2017-08-05T00:07:41.017Z,0
2017-08-05T00:08:51.293Z,0
2017-08-05T00:10:00.938Z,0
2017-08-05T00:11:11.210Z,0
2017-08-05T00:12:21.478Z,0
2017-08-05T00:13:31.766Z,0
2017-08-05T00:14:41.721Z,0
2017-08-05T00:15:52.001Z,0
2017-08-05T00:17:02.000Z,0
2017-08-05T00:18:12.271Z,0
2017-08-05T00:19:22.542Z,0
2017-08-05T00:20:32.498Z,0
2017-08-05T00:21:42.766Z,0
2017-08-05T00:22:53.050Z,0
2017-08-05T00:24:03.322Z,0
2017-08-05T00:25:13.596Z,0
2017-08-05T00:26:23.867Z,0
2017-08-05T00:27:34.135Z,0
2017-08-05T00:28:44.403Z,0
2017-08-05T00:29:54.676Z,0
2017-08-05T00:31:04.632Z,0
2017-08-05T00:32:14.592Z,0
2017-08-05T00:33:24.857Z,0
2017-08-05T00:34:35.135Z,0
2017-08-05T00:35:45.412Z,0
2017-08-05T00:36:55.690Z,0
2017-08-05T00:38:05.962Z,0
2017-08-05T00:39:16.239Z,0
2017-08-05T00:40:26.508Z,0
2017-08-05T00:41:36.781Z,0
2017-08-05T00:42:47.058Z,0
2017-08-05T00:43:57.336Z,0
2017-08-05T00:45:07.612Z,0
2017-08-05T00:46:17.568Z,0
2017-08-05T00:47:27.525Z,0
2017-08-05T00:48:37.812Z,0
2017-08-05T00:49:47.766Z,0
2017-08-05T00:50:58.050Z,0
2017-08-05T00:52:08.319Z,0
2017-08-05T00:53:18.602Z,0
2017-08-05T00:54:28.876Z,0
2017-08-05T00:55:39.144Z,0
2017-08-05T00:56:49.437Z,0
2017-08-05T00:57:59.389Z,0
2017-08-05T00:59:09.653Z,0
2017-08-05T01:00:19.921Z,0
2017-08-05T01:01:30.194Z,0
2017-08-05T01:02:40.466Z,0
2017-08-05T01:03:50.743Z,0
2017-08-05T01:05:01.013Z,0
2017-08-05T01:06:10.975Z,0
2017-08-05T01:07:21.245Z,0
2017-08-05T01:08:31.532Z,0
2017-08-05T01:09:41.805Z,0
2017-08-05T01:10:51.764Z,0
2017-08-05T01:12:02.030Z,0
2017-08-05T01:13:12.303Z,0
2017-08-05T01:14:22.580Z,0
2017-08-05T01:15:32.850Z,0
2017-08-05T01:16:43.133Z,0
2017-08-05T01:17:53.401Z,0
2017-08-05T01:19:03.671Z,0
2017-08-05T01:20:13.316Z,0
2017-08-05T01:21:23.275Z,0
2017-08-05T01:22:33.546Z,0
2017-08-05T01:23:43.816Z,0
2017-08-05T01:24:54.089Z,0
2017-08-05T01:26:04.359Z,0
2017-08-05T01:27:14.628Z,0
2017-08-05T01:28:24.898Z,0
2017-08-05T01:29:35.197Z,0
2017-08-05T01:30:45.470Z,0
2017-08-05T01:31:55.751Z,0
2017-08-05T01:33:06.022Z,0
2017-08-05T01:34:16.296Z,0
2017-08-05T01:35:26.264Z,0
2017-08-05T01:36:36.534Z,0
2017-08-05T01:37:46.823Z,0
2017-08-05T01:38:57.096Z,0
2017-08-05T01:40:07.054Z,0
2017-08-05T01:41:17.020Z,0
2017-08-05T01:42:27.316Z,0
2017-08-05T01:43:37.589Z,0
2017-08-05T01:44:47.857Z,0
2017-08-05T01:45:58.161Z,0
2017-08-05T01:47:08.127Z,0
2017-08-05T01:48:18.085Z,0
2017-08-05T01:49:28.355Z,0
2017-08-05T01:50:38.308Z,0
2017-08-05T01:51:48.579Z,0
2017-08-05T01:52:58.858Z,0
2017-08-05T01:54:09.134Z,0
2017-08-05T01:55:19.091Z,0
2017-08-05T01:56:29.365Z,0
2017-08-05T01:57:39.641Z,0
2017-08-05T01:58:49.597Z,0
2017-08-05T01:59:59.867Z,0
2017-08-05T02:01:10.146Z,0
2017-08-05T02:02:20.109Z,0
2017-08-05T02:03:30.380Z,0
2017-08-05T02:04:40.337Z,0
2017-08-05T02:05:49.976Z,0
2017-08-05T02:07:00.250Z,0
2017-08-05T02:08:10.215Z,0
2017-08-05T02:09:20.641Z,0
2017-08-05T02:10:30.916Z,0
2017-08-05T02:11:41.190Z,0
2017-08-05T02:12:51.461Z,0
2017-08-05T02:14:01.728Z,0
2017-08-05T02:15:12.003Z,0
2017-08-05T02:16:22.276Z,0
2017-08-05T02:17:32.543Z,0
2017-08-05T02:18:42.501Z,0
2017-08-05T02:19:52.770Z,0
2017-08-05T02:21:02.723Z,0
2017-08-05T02:22:12.681Z,0
2017-08-05T02:23:22.980Z,0
2017-08-05T02:24:33.253Z,0
2017-08-05T02:25:43.211Z,0
2017-08-05T02:26:53.265Z,0
2017-08-05T02:28:02.915Z,0
2017-08-05T02:29:12.871Z,0
2017-08-05T02:30:23.144Z,0
2017-08-05T02:31:33.417Z,0
2017-08-05T02:32:43.705Z,0
2017-08-05T02:33:53.976Z,0
2017-08-05T02:35:04.249Z,0
2017-08-05T02:36:14.203Z,0
2017-08-05T02:37:24.175Z,0
2017-08-05T02:38:34.451Z,0
2017-08-05T02:39:44.742Z,0
2017-08-05T02:40:55.018Z,0
2017-08-05T02:42:05.293Z,0
2017-08-05T02:43:15.572Z,0
2017-08-05T02:44:25.842Z,0
2017-08-05T02:45:36.116Z,0
2017-08-05T02:46:46.396Z,0
2017-08-05T02:47:56.699Z,0
2017-08-05T02:49:06.981Z,0
2017-08-05T02:50:17.254Z,0
2017-08-05T02:51:27.527Z,0
2017-08-05T02:52:37.802Z,0
2017-08-05T02:53:47.764Z,0
2017-08-05T02:54:58.034Z,0
2017-08-05T02:56:07.989Z,0
2017-08-05T02:57:18.267Z,0
2017-08-05T02:58:28.538Z,0
2017-08-05T02:59:38.812Z,0
2017-08-05T03:00:49.085Z,0
2017-08-05T03:01:59.358Z,0
2017-08-05T03:03:09.627Z,0
2017-08-05T03:04:19.899Z,0
2017-08-05T03:05:30.186Z,0
2017-08-05T03:06:40.455Z,0
2017-08-05T03:07:50.418Z,0
2017-08-05T03:09:00.373Z,0
2017-08-05T03:10:10.016Z,0
2017-08-05T03:11:19.975Z,0
2017-08-05T03:12:30.246Z,0
2017-08-05T03:13:40.521Z,0
2017-08-05T03:14:50.799Z,0
2017-08-05T03:16:00.447Z,0
2017-08-05T03:17:10.096Z,0
2017-08-05T03:18:20.056Z,0
2017-08-05T03:19:30.010Z,0
2017-08-05T03:20:40.278Z,0
2017-08-05T03:21:50.551Z,0
2017-08-05T03:23:00.835Z,0
2017-08-05T03:24:11.130Z,0
2017-08-05T03:25:21.403Z,0
2017-08-05T03:26:31.675Z,0
2017-08-05T03:27:41.638Z,5
2017-08-05T03:28:51.295Z,5
2017-08-05T03:30:01.565Z,5
2017-08-05T03:31:11.846Z,5
2017-08-05T03:32:22.118Z,5
2017-08-05T03:33:32.385Z,5
2017-08-05T03:34:42.658Z,5
2017-08-05T03:35:52.616Z,5
2017-08-05T03:37:02.886Z,5
2017-08-05T03:38:13.167Z,5
2017-08-05T03:39:23.121Z,5
2017-08-05T03:40:33.411Z,5
2017-08-05T03:41:43.682Z,5
2017-08-05T03:42:53.954Z,5
2017-08-05T03:44:04.228Z,5
2017-08-05T03:45:14.502Z,5
2017-08-05T03:46:24.772Z,5
2017-08-05T03:47:35.036Z,5
2017-08-05T03:48:45.313Z,10
2017-08-05T03:49:55.582Z,10
2017-08-05T03:51:05.853Z,10
2017-08-05T03:52:15.811Z,10
2017-08-05T03:53:25.767Z,10
2017-08-05T03:54:36.066Z,10
2017-08-05T03:55:46.339Z,10
2017-08-05T03:56:56.611Z,10
2017-08-05T03:58:06.885Z,10
2017-08-05T03:59:17.156Z,15
2017-08-05T04:00:27.111Z,15
2017-08-05T04:01:37.390Z,15
2017-08-05T04:02:47.661Z,20
2017-08-05T04:03:57.938Z,20
2017-08-05T04:05:08.208Z,20
2017-08-05T04:06:18.481Z,20
2017-08-05T04:07:28.753Z,20
2017-08-05T04:08:39.023Z,25
2017-08-05T04:09:49.292Z,25
2017-08-05T04:10:59.571Z,25
2017-08-05T04:12:09.214Z,25
2017-08-05T04:13:19.488Z,25
2017-08-05T04:14:29.765Z,25
2017-08-05T04:15:40.038Z,25
2017-08-05T04:16:50.306Z,30
2017-08-05T04:18:00.582Z,30
2017-08-05T04:19:10.570Z,30
2017-08-05T04:20:20.844Z,35
2017-08-05T04:21:31.118Z,35
2017-08-05T04:22:41.385Z,40
2017-08-05T04:23:51.340Z,40
2017-08-05T04:25:01.298Z,45
2017-08-05T04:26:11.265Z,50
2017-08-05T04:27:21.545Z,50
2017-08-05T04:28:31.815Z,55
2017-08-05T04:29:42.085Z,60
2017-08-05T04:30:52.364Z,70
2017-08-05T04:32:02.635Z,75
2017-08-05T04:33:12.596Z,80
2017-08-05T04:34:22.552Z,85
2017-08-05T04:35:32.824Z,90
2017-08-05T04:36:43.106Z,95
2017-08-05T04:37:53.379Z,95
2017-08-05T04:39:03.649Z,100
2017-08-05T04:40:13.926Z,100
2017-08-05T04:41:23.570Z,105
2017-08-05T04:42:33.840Z,105
2017-08-05T04:43:44.110Z,105
2017-08-05T04:44:54.389Z,105
2017-08-05T04:46:04.663Z,105
2017-08-05T04:47:14.630Z,100
2017-08-05T04:48:24.909Z,95
2017-08-05T04:49:34.866Z,95
2017-08-05T04:50:44.827Z,90
2017-08-05T04:51:55.102Z,90
2017-08-05T04:53:05.381Z,90
2017-08-05T04:54:15.656Z,85
2017-08-05T04:55:25.621Z,85
2017-08-05T04:56:35.892Z,85
2017-08-05T04:57:46.168Z,90
2017-08-05T04:58:56.442Z,90
2017-08-05T05:00:06.410Z,90
2017-08-05T05:01:16.685Z,90
2017-08-05T05:02:26.961Z,90
2017-08-05T05:03:36.923Z,90
2017-08-05T05:04:46.881Z,95
2017-08-05T05:05:56.839Z,95
2017-08-05T05:07:07.106Z,95
2017-08-05T05:08:17.064Z,100
2017-08-05T05:09:27.336Z,100
2017-08-05T05:10:37.610Z,105
2017-08-05T05:11:47.894Z,105
2017-08-05T05:12:57.859Z,105
2017-08-05T05:14:08.136Z,115
2017-08-05T05:15:18.415Z,110
2017-08-05T05:16:28.375Z,110
2017-08-05T05:17:38.657Z,110
2017-08-05T05:18:48.619Z,110
2017-08-05T05:19:58.900Z,115
2017-08-05T05:21:09.173Z,120
2017-08-05T05:22:19.444Z,125
2017-08-05T05:23:29.720Z,125
2017-08-05T05:24:39.998Z,130
2017-08-05T05:25:50.276Z,140
2017-08-05T05:27:00.552Z,150
2017-08-05T05:28:09.884Z,160
2017-08-05T05:29:20.164Z,170
2017-08-05T05:30:30.433Z,170
2017-08-05T05:31:40.716Z,180
2017-08-05T05:32:50.675Z,180
2017-08-05T05:34:00.948Z,180
2017-08-05T05:35:11.223Z,185
2017-08-05T05:36:21.188Z,200
2017-08-05T05:37:31.456Z,205
2017-08-05T05:38:41.726Z,205
2017-08-05T05:39:51.687Z,215
2017-08-05T05:41:01.668Z,220
2017-08-05T05:42:11.625Z,220
2017-08-05T05:43:21.896Z,220
2017-08-05T05:44:32.166Z,210
2017-08-05T05:45:42.126Z,205
2017-08-05T05:46:52.397Z,205
2017-08-05T05:48:02.666Z,200
2017-08-05T05:49:12.940Z,200
2017-08-05T05:50:23.211Z,195
2017-08-05T05:51:33.487Z,190
2017-08-05T05:52:43.759Z,190
2017-08-05T05:53:53.715Z,190
2017-08-05T05:55:03.999Z,195
2017-08-05T05:56:13.958Z,195
2017-08-05T05:57:24.230Z,200
2017-08-05T05:58:34.197Z,205
2017-08-05T05:59:44.477Z,215
2017-08-05T06:00:54.760Z,220
2017-08-05T06:02:05.032Z,225
2017-08-05T06:03:15.304Z,220
2017-08-05T06:04:25.265Z,220
2017-08-05T06:05:35.543Z,220
2017-08-05T06:06:45.510Z,220
2017-08-05T06:07:55.470Z,220
2017-08-05T06:09:05.744Z,220
2017-08-05T06:10:15.705Z,225
2017-08-05T06:11:25.978Z,230
2017-08-05T06:12:36.262Z,225
2017-08-05T06:13:46.536Z,225
2017-08-05T06:14:56.497Z,225
2017-08-05T06:16:06.459Z,225
2017-08-05T06:17:16.751Z,225
2017-08-05T06:18:27.023Z,230
2017-08-05T06:19:37.296Z,235
2017-08-05T06:20:47.570Z,240
2017-08-05T06:21:57.840Z,245
2017-08-05T06:23:07.804Z,250
2017-08-05T06:24:17.764Z,250
2017-08-05T06:25:28.034Z,255
2017-08-05T06:26:37.990Z,260
2017-08-05T06:27:48.262Z,265
2017-08-05T06:28:58.535Z,275
2017-08-05T06:30:08.494Z,280
2017-08-05T06:31:18.460Z,285
2017-08-05T06:32:28.765Z,295
2017-08-05T06:33:38.723Z,305
2017-08-05T06:34:48.682Z,310
2017-08-05T06:35:58.333Z,310
2017-08-05T06:37:08.615Z,315
2017-08-05T06:38:19.139Z,310
2017-08-05T06:39:29.418Z,310
2017-08-05T06:40:39.696Z,315
2017-08-05T06:41:49.976Z,305
2017-08-05T06:42:59.943Z,305
2017-08-05T06:44:10.219Z,305
2017-08-05T06:45:20.182Z,305
2017-08-05T06:46:29.829Z,310
2017-08-05T06:47:39.785Z,315
2017-08-05T06:48:50.063Z,325
2017-08-05T06:50:00.347Z,330
2017-08-05T06:51:10.620Z,335
2017-08-05T06:52:20.572Z,340
2017-08-05T06:53:30.538Z,345
2017-08-05T06:54:40.186Z,345
2017-08-05T06:55:50.459Z,345
2017-08-05T06:57:00.739Z,350
2017-08-05T06:58:11.014Z,355
2017-08-05T06:59:21.308Z,360
2017-08-05T07:00:31.584Z,360
2017-08-05T07:01:41.614Z,360
2017-08-05T07:02:51.887Z,360
2017-08-05T07:04:01.846Z,365
2017-08-05T07:05:11.807Z,360
2017-08-05T07:06:22.079Z,360
2017-08-05T07:07:32.036Z,360
2017-08-05T07:08:41.996Z,355
2017-08-05T07:09:52.271Z,355
2017-08-05T07:11:02.550Z,355
2017-08-05T07:12:12.841Z,350
2017-08-05T07:13:23.118Z,350
2017-08-05T07:14:33.079Z,345
2017-08-05T07:15:43.364Z,345
2017-08-05T07:16:53.322Z,345
2017-08-05T07:18:03.595Z,355
2017-08-05T07:19:13.871Z,350
2017-08-05T07:20:23.831Z,355
2017-08-05T07:21:33.790Z,355
2017-08-05T07:22:44.063Z,360
2017-08-05T07:23:54.338Z,360
2017-08-05T07:25:04.295Z,355
2017-08-05T07:26:14.570Z,355
2017-08-05T07:27:24.845Z,355
2017-08-05T07:28:35.128Z,355
2017-08-05T07:29:45.091Z,355
2017-08-05T07:30:55.056Z,355
2017-08-05T07:32:04.703Z,360
2017-08-05T07:33:14.980Z,360
2017-08-05T07:34:25.254Z,360
2017-08-05T07:35:35.529Z,365
2017-08-05T07:36:45.802Z,360
2017-08-05T07:37:55.766Z,365
2017-08-05T07:39:05.753Z,370
2017-08-05T07:40:16.031Z,375
2017-08-05T07:41:25.993Z,380
2017-08-05T07:42:36.269Z,380
2017-08-05T07:43:46.246Z,385
2017-08-05T07:44:56.526Z,395
2017-08-05T07:46:06.813Z,400
2017-08-05T07:47:17.090Z,405
2017-08-05T07:48:27.373Z,410
2017-08-05T07:49:37.650Z,415
2017-08-05T07:50:47.926Z,420
2017-08-05T07:51:58.207Z,425
2017-08-05T07:53:08.483Z,425
2017-08-05T07:54:18.445Z,425
2017-08-05T07:55:28.408Z,430
2017-08-05T07:56:38.723Z,425
2017-08-05T07:57:49.007Z,425
2017-08-05T07:58:59.288Z,425
2017-08-05T08:00:09.276Z,430
2017-08-05T08:01:19.556Z,430
2017-08-05T08:02:29.839Z,430
2017-08-05T08:03:40.125Z,435
2017-08-05T08:04:50.410Z,435
2017-08-05T08:06:00.684Z,440
2017-08-05T08:07:10.643Z,445
2017-08-05T08:08:20.287Z,455
2017-08-05T08:09:30.567Z,460
2017-08-05T08:10:40.841Z,455
2017-08-05T08:11:53.118Z,460
2017-08-05T08:13:03.391Z,460
2017-08-05T08:14:13.670Z,460
2017-08-05T08:15:23.630Z,465
2017-08-05T08:16:33.913Z,470
2017-08-05T08:17:44.193Z,470
2017-08-05T08:18:54.470Z,480
2017-08-05T08:20:04.431Z,480
2017-08-05T08:21:14.708Z,480
2017-08-05T08:22:24.990Z,475
2017-08-05T08:23:35.522Z,480
2017-08-05T08:24:45.802Z,470
2017-08-05T08:25:55.762Z,460
2017-08-05T08:27:06.043Z,455
2017-08-05T08:28:16.313Z,455
2017-08-05T08:29:26.585Z,450
2017-08-05T08:30:36.863Z,450
2017-08-05T08:31:47.137Z,450
2017-08-05T08:32:57.416Z,455
2017-08-05T08:34:07.380Z,460
2017-08-05T08:35:17.653Z,465
2017-08-05T08:36:27.937Z,465
2017-08-05T08:37:38.211Z,465
2017-08-05T08:38:48.488Z,470
2017-08-05T08:39:58.771Z,480
2017-08-05T08:41:08.738Z,485
2017-08-05T08:42:18.696Z,495
2017-08-05T08:43:28.973Z,505
2017-08-05T08:44:39.268Z,505
2017-08-05T08:45:49.546Z,505
2017-08-05T08:46:59.829Z,505
2017-08-05T08:48:09.790Z,505
2017-08-05T08:49:20.070Z,505
2017-08-05T08:50:30.350Z,490
2017-08-05T08:51:40.630Z,490
2017-08-05T08:52:50.905Z,485
2017-08-05T08:54:01.183Z,480
2017-08-05T08:55:11.463Z,470
2017-08-05T08:56:21.426Z,465
2017-08-05T08:57:31.701Z,460
2017-08-05T08:58:41.978Z,450
2017-08-05T08:59:52.258Z,450
2017-08-05T09:01:02.224Z,450
2017-08-05T09:02:12.504Z,450
2017-08-05T09:03:22.777Z,440
2017-08-05T09:04:33.068Z,445
2017-08-05T09:05:43.362Z,450
2017-08-05T09:06:53.638Z,465
2017-08-05T09:08:03.913Z,480
2017-08-05T09:09:13.885Z,490
2017-08-05T09:10:24.164Z,500
2017-08-05T09:11:34.443Z,515
2017-08-05T09:12:44.718Z,515
2017-08-05T09:13:54.997Z,515
2017-08-05T09:15:04.956Z,505
2017-08-05T09:16:15.232Z,500
2017-08-05T09:17:25.507Z,480
2017-08-05T09:18:35.469Z,465
2017-08-05T09:19:45.745Z,455
2017-08-05T09:20:55.705Z,455
2017-08-05T09:22:05.665Z,445
2017-08-05T09:23:15.626Z,440
2017-08-05T09:24:25.592Z,440
2017-08-05T09:25:35.868Z,440
2017-08-05T09:26:45.525Z,445
2017-08-05T09:27:55.486Z,450
2017-08-05T09:29:05.447Z,445
2017-08-05T09:30:15.408Z,445
2017-08-05T09:31:25.368Z,435
2017-08-05T09:32:35.646Z,425
2017-08-05T09:33:45.927Z,420
2017-08-05T09:34:55.893Z,405
2017-08-05T09:36:06.171Z,400
2017-08-05T09:37:16.138Z,395
2017-08-05T09:38:26.438Z,395
2017-08-05T09:39:36.727Z,380
2017-08-05T09:40:47.022Z,370
2017-08-05T09:41:56.353Z,370
2017-08-05T09:43:06.635Z,355
2017-08-05T09:44:16.913Z,370
2017-08-05T09:45:27.192Z,375
2017-08-05T09:46:37.473Z,385
2017-08-05T09:47:47.754Z,385
2017-08-05T09:48:58.031Z,395
2017-08-05T09:50:08.309Z,390
2017-08-05T09:51:18.603Z,390
2017-08-05T09:52:28.883Z,385
2017-08-05T09:53:39.168Z,380
2017-08-05T09:54:49.144Z,385
2017-08-05T09:55:59.112Z,390
2017-08-05T09:57:09.393Z,400
2017-08-05T09:58:19.353Z,410
2017-08-05T09:59:29.314Z,420
2017-08-05T10:00:39.593Z,425
2017-08-05T10:01:49.555Z,425
2017-08-05T10:02:59.832Z,420
2017-08-05T10:04:09.798Z,425
2017-08-05T10:05:20.077Z,425
2017-08-05T10:06:30.356Z,430
2017-08-05T10:07:40.318Z,445
2017-08-05T10:08:50.280Z,455
2017-08-05T10:10:00.246Z,470
2017-08-05T10:11:10.225Z,475
2017-08-05T10:12:20.504Z,475
2017-08-05T10:13:30.782Z,475
2017-08-05T10:14:41.059Z,475
2017-08-05T10:15:50.708Z,465
2017-08-05T10:17:00.988Z,465
2017-08-05T10:18:11.262Z,460
2017-08-05T10:19:21.220Z,450
2017-08-05T10:20:31.186Z,430
2017-08-05T10:21:41.152Z,415
2017-08-05T10:22:51.431Z,405
2017-08-05T10:24:01.711Z,400
2017-08-05T10:25:11.991Z,390
2017-08-05T10:26:21.953Z,385
2017-08-05T10:27:32.234Z,370
2017-08-05T10:28:42.505Z,360
2017-08-05T10:29:52.777Z,355
2017-08-05T10:31:03.061Z,345
2017-08-05T10:32:13.338Z,330
2017-08-05T10:33:23.616Z,335
2017-08-05T10:34:33.893Z,340
2017-08-05T10:35:43.856Z,345
2017-08-05T10:36:54.198Z,350
2017-08-05T10:38:04.477Z,350
2017-08-05T10:39:14.760Z,355
2017-08-05T10:40:25.039Z,355
2017-08-05T10:41:34.999Z,345
2017-08-05T10:42:45.277Z,345
2017-08-05T10:43:55.239Z,325
2017-08-05T10:45:05.219Z,335
2017-08-05T10:46:15.496Z,320
2017-08-05T10:47:25.458Z,325
2017-08-05T10:48:35.731Z,325
2017-08-05T10:49:45.727Z,325
2017-08-05T10:50:56.007Z,325
2017-08-05T10:52:06.286Z,330
2017-08-05T10:53:16.569Z,335
2017-08-05T10:54:26.227Z,335
2017-08-05T10:55:36.506Z,335
2017-08-05T10:56:46.780Z,335
2017-08-05T10:57:56.748Z,335
2017-08-05T10:59:07.026Z,335
2017-08-05T11:00:17.299Z,335
2017-08-05T11:01:27.264Z,335
2017-08-05T11:02:37.230Z,340
2017-08-05T11:03:47.535Z,340
2017-08-05T11:04:57.828Z,340
2017-08-05T11:06:07.791Z,340
2017-08-05T11:07:17.439Z,345
2017-08-05T11:08:27.407Z,345
2017-08-05T11:09:37.392Z,345
2017-08-05T11:10:47.673Z,355
2017-08-05T11:11:57.954Z,360
2017-08-05T11:13:08.237Z,380
2017-08-05T11:14:18.207Z,390
2017-08-05T11:15:28.482Z,410
2017-08-05T11:16:38.755Z,435
2017-08-05T11:17:48.405Z,445
2017-08-05T11:18:58.678Z,450
2017-08-05T11:20:08.958Z,445
2017-08-05T11:21:19.235Z,425
2017-08-05T11:22:29.513Z,415
2017-08-05T11:23:39.472Z,470
2017-08-05T11:24:49.127Z,490
2017-08-05T11:25:59.091Z,590
2017-08-05T11:27:09.055Z,660
2017-08-05T11:28:19.325Z,680
2017-08-05T11:29:29.287Z,655
2017-08-05T11:30:39.567Z,690
2017-08-05T11:31:49.845Z,645
2017-08-05T11:33:00.148Z,1475
2017-08-05T11:34:10.121Z,3005
2017-08-05T11:35:20.403Z,3180
2017-08-05T11:36:30.679Z,3145
2017-08-05T11:37:40.962Z,3295
2017-08-05T11:38:51.238Z,3285
2017-08-05T11:40:01.516Z,3110
2017-08-05T11:41:11.802Z,3320
2017-08-05T11:42:22.092Z,2950
2017-08-05T11:43:32.373Z,2890
2017-08-05T11:44:42.658Z,3265
2017-08-05T11:45:52.632Z,3440
2017-08-05T11:47:02.911Z,3250
2017-08-05T11:48:13.196Z,3265
2017-08-05T11:49:23.478Z,3305
2017-08-05T11:50:33.759Z,3045
2017-08-05T11:51:43.745Z,3075
2017-08-05T11:52:54.034Z,2930
2017-08-05T11:54:03.697Z,3090
2017-08-05T11:55:13.670Z,3010
2017-08-05T11:56:23.961Z,3005
2017-08-05T11:57:34.248Z,3205
2017-08-05T11:58:44.535Z,2765
2017-08-05T11:59:54.609Z,2805
2017-08-05T12:01:04.584Z,2925
2017-08-05T12:02:14.869Z,3000
2017-08-05T12:03:24.844Z,3100
2017-08-05T12:04:34.816Z,3345
2017-08-05T12:05:45.105Z,2970
2017-08-05T12:06:55.402Z,2885
2017-08-05T12:08:05.376Z,3245
2017-08-05T12:09:15.670Z,3285
2017-08-05T12:10:25.960Z,3270
2017-08-05T12:11:36.255Z,3515
2017-08-05T12:12:46.546Z,3440
2017-08-05T12:13:56.835Z,3480
2017-08-05T12:15:06.814Z,3355
2017-08-05T12:16:16.802Z,3095
2017-08-05T12:17:26.775Z,3230
2017-08-05T12:18:36.761Z,3320
2017-08-05T12:19:47.054Z,3320
2017-08-05T12:20:56.718Z,3440
2017-08-05T12:22:07.020Z,3570
2017-08-05T12:23:17.308Z,3415
2017-08-05T12:24:27.283Z,2780
2017-08-05T12:25:37.575Z,3125
2017-08-05T12:26:47.873Z,3100
2017-08-05T12:27:58.168Z,3095
2017-08-05T12:29:08.468Z,3195
2017-08-05T12:30:18.451Z,3245
2017-08-05T12:31:28.738Z,3150
2017-08-05T12:32:39.031Z,3245
2017-08-05T12:33:49.321Z,3285
2017-08-05T12:34:59.618Z,3315
2017-08-05T12:36:09.595Z,2875
2017-08-05T12:37:19.890Z,2925
2017-08-05T12:38:30.183Z,3035
2017-08-05T12:39:40.481Z,3045
2017-08-05T12:40:50.819Z,3040
2017-08-05T12:42:01.118Z,3050
2017-08-05T12:43:11.409Z,2935
2017-08-05T12:44:21.389Z,2840
2017-08-05T12:45:31.675Z,2880
2017-08-05T12:46:44.225Z,2395
2017-08-05T12:47:54.527Z,2005
2017-08-05T12:49:04.823Z,1780
2017-08-05T12:50:15.119Z,1755
2017-08-05T12:51:25.104Z,1760
2017-08-05T12:52:35.391Z,1665
2017-08-05T12:53:45.378Z,1535
2017-08-05T12:54:55.680Z,2495
2017-08-05T12:56:05.977Z,2950
2017-08-05T12:57:16.272Z,2870
2017-08-05T12:58:26.561Z,2405
2017-08-05T12:59:36.855Z,2305
2017-08-05T13:00:46.829Z,2315
2017-08-05T13:01:56.807Z,2495
2017-08-05T13:03:07.101Z,2880
2017-08-05T13:04:17.079Z,3095
2017-08-05T13:05:27.060Z,3110
2017-08-05T13:06:37.350Z,2510
2017-08-05T13:07:47.652Z,2425
2017-08-05T13:08:57.629Z,2605
2017-08-05T13:10:07.611Z,2730
2017-08-05T13:11:17.907Z,2760
2017-08-05T13:12:28.204Z,2845
2017-08-05T13:13:38.181Z,3190
2017-08-05T13:14:48.470Z,3730
2017-08-05T13:15:58.453Z,3990
2017-08-05T13:17:08.749Z,4255
2017-08-05T13:18:19.052Z,4125
2017-08-05T13:19:29.033Z,3875
2017-08-05T13:20:38.696Z,3645
2017-08-05T13:21:48.688Z,3880
2017-08-05T13:22:58.978Z,3965
2017-08-05T13:24:08.963Z,3605
2017-08-05T13:25:18.944Z,3360
2017-08-05T13:26:29.237Z,3400
2017-08-05T13:27:39.216Z,3725
2017-08-05T13:28:49.509Z,3585
2017-08-05T13:29:59.494Z,3540
2017-08-05T13:31:09.788Z,3475
2017-08-05T13:32:20.081Z,3620
2017-08-05T13:33:30.061Z,3325
2017-08-05T13:34:40.051Z,3455
2017-08-05T13:35:50.342Z,3365
2017-08-05T13:37:00.636Z,3220
2017-08-05T13:38:10.930Z,3315
2017-08-05T13:39:20.909Z,3320
2017-08-05T13:40:31.205Z,3350
2017-08-05T13:41:41.190Z,3440
2017-08-05T13:42:51.479Z,3425
2017-08-05T13:44:01.770Z,3255
2017-08-05T13:45:12.075Z,3355
2017-08-05T13:46:22.072Z,3310
2017-08-05T13:47:32.369Z,2960
2017-08-05T13:48:42.369Z,2910
2017-08-05T13:49:52.657Z,2885
2017-08-05T13:51:02.357Z,3245
2017-08-05T13:52:12.343Z,3090
2017-08-05T13:53:22.640Z,3065
2017-08-05T13:54:32.938Z,3470
2017-08-05T13:55:43.232Z,3465
2017-08-05T13:56:53.525Z,3380
2017-08-05T13:58:03.817Z,3230
2017-08-05T13:59:13.799Z,3300
2017-08-05T14:00:23.790Z,3220
2017-08-05T14:01:33.772Z,3335
2017-08-05T14:02:44.072Z,3185
2017-08-05T14:03:54.381Z,2995
2017-08-05T14:05:04.688Z,2540
2017-08-05T14:06:14.992Z,2075
2017-08-05T14:07:24.970Z,2375
2017-08-05T14:08:34.677Z,3235
2017-08-05T14:09:44.971Z,3180
2017-08-05T14:10:55.263Z,3210
2017-08-05T14:12:05.561Z,3330
2017-08-05T14:13:15.545Z,3305
2017-08-05T14:14:25.849Z,3210
2017-08-05T14:15:35.828Z,3220
2017-08-05T14:16:46.131Z,3180
2017-08-05T14:17:56.109Z,3210
2017-08-05T14:19:06.403Z,3325
2017-08-05T14:20:16.381Z,2740
2017-08-05T14:21:26.358Z,2995
2017-08-05T14:22:35.704Z,3385
2017-08-05T14:23:45.690Z,3125
2017-08-05T14:24:55.980Z,2950
2017-08-05T14:26:05.954Z,3090
2017-08-05T14:27:15.929Z,3160
2017-08-05T14:28:26.228Z,3195
2017-08-05T14:29:35.890Z,3250
2017-08-05T14:30:46.188Z,3105
2017-08-05T14:31:56.162Z,3130
2017-08-05T14:33:06.138Z,3185
2017-08-05T14:34:16.428Z,3110
2017-08-05T14:35:26.720Z,3065
2017-08-05T14:36:36.701Z,3170
2017-08-05T14:37:46.682Z,3135
2017-08-05T14:38:56.656Z,2965
2017-08-05T14:40:06.323Z,3070
2017-08-05T14:41:16.304Z,3230
2017-08-05T14:42:26.611Z,3215
2017-08-05T14:43:36.591Z,3165
2017-08-05T14:44:46.884Z,2960
2017-08-05T14:45:57.180Z,2925
2017-08-05T14:47:07.165Z,3055
2017-08-05T14:48:17.458Z,3175
2017-08-05T14:49:27.755Z,3130
2017-08-05T14:50:37.749Z,3020
2017-08-05T14:51:48.039Z,2915
2017-08-05T14:52:58.330Z,3120
2017-08-05T14:54:08.624Z,3205
2017-08-05T14:55:18.608Z,3190
2017-08-05T14:56:28.272Z,3145
2017-08-05T14:57:38.259Z,2990
2017-08-05T14:58:48.256Z,2050
2017-08-05T14:59:58.554Z,1455
2017-08-05T15:01:08.545Z,1440
2017-08-05T15:02:18.844Z,1845
2017-08-05T15:03:29.156Z,2670
2017-08-05T15:04:39.452Z,3315
2017-08-05T15:05:49.754Z,3200
2017-08-05T15:07:00.046Z,2500
2017-08-05T15:08:10.025Z,2080
2017-08-05T15:09:20.319Z,2940
2017-08-05T15:10:30.616Z,2985
2017-08-05T15:11:40.600Z,3015
2017-08-05T15:12:50.889Z,2975
2017-08-05T15:14:01.181Z,3000
2017-08-05T15:15:11.477Z,2925
2017-08-05T15:16:21.769Z,2850
2017-08-05T15:17:31.749Z,2950
2017-08-05T15:18:41.727Z,2870
2017-08-05T15:19:52.020Z,2825
2017-08-05T15:21:02.004Z,2790
2017-08-05T15:22:12.297Z,2810
2017-08-05T15:23:22.615Z,2725
2017-08-05T15:24:32.912Z,2655
2017-08-05T15:25:42.905Z,2805
2017-08-05T15:26:52.887Z,2820
2017-08-05T15:28:02.868Z,2760
2017-08-05T15:29:13.167Z,2415
2017-08-05T15:30:23.145Z,2065
2017-08-05T15:31:33.441Z,2160
2017-08-05T15:32:43.733Z,2255
2017-08-05T15:33:53.708Z,2570
2017-08-05T15:35:03.072Z,2835
2017-08-05T15:36:13.375Z,2225
2017-08-05T15:37:23.672Z,2920
2017-08-05T15:38:33.969Z,1200
2017-08-05T15:39:43.954Z,985
2017-08-05T15:40:53.623Z,780
2017-08-05T15:42:03.610Z,710
2017-08-05T15:43:13.908Z,665
2017-08-05T15:44:24.222Z,615
2017-08-05T15:45:34.200Z,545
2017-08-05T15:46:44.182Z,485
2017-08-05T15:47:53.851Z,440
2017-08-05T15:49:03.832Z,415
2017-08-05T15:50:13.809Z,385
2017-08-05T15:51:24.099Z,360
2017-08-05T15:52:34.391Z,335
2017-08-05T15:53:44.363Z,315
2017-08-05T15:54:54.337Z,305
2017-08-05T15:56:04.632Z,290
2017-08-05T15:57:14.610Z,290
2017-08-05T15:58:24.583Z,295
2017-08-05T15:59:34.875Z,305
2017-08-05T16:00:45.168Z,305
2017-08-05T16:01:55.460Z,300
2017-08-05T16:03:05.747Z,290
2017-08-05T16:04:16.038Z,270
2017-08-05T16:05:26.319Z,250
2017-08-05T16:06:35.977Z,235
2017-08-05T16:07:45.974Z,225
2017-08-05T16:08:55.940Z,215
2017-08-05T16:10:06.225Z,205
2017-08-05T16:11:16.203Z,200
2017-08-05T16:12:26.493Z,195
2017-08-05T16:13:36.792Z,195
2017-08-05T16:14:47.076Z,190
2017-08-05T16:15:57.368Z,190